createdAt,value
2023-01-20T00:55:51.902Z,431.00
2023-01-20T00:56:52.866Z,434.00
2023-01-20T00:57:52.860Z,439.00
2023-01-20T00:58:52.851Z,438.00
2023-01-20T00:59:52.834Z,440.00
2023-01-20T01:00:52.931Z,441.00
2023-01-20T01:01:52.966Z,441.00
2023-01-20T01:02:54.920Z,438.00
2023-01-20T01:03:52.800Z,437.00
2023-01-20T01:04:52.790Z,437.00
2023-01-20T01:05:52.776Z,435.00
2023-01-20T01:06:52.774Z,435.00
2023-01-20T01:07:52.773Z,433.00
2023-01-20T01:08:52.756Z,433.00
2023-01-20T01:09:52.744Z,434.00
2023-01-20T01:10:52.738Z,435.00
2023-01-20T01:11:52.749Z,437.00
2023-01-20T01:12:52.716Z,438.00
2023-01-20T01:13:52.714Z,436.00
2023-01-20T01:14:52.699Z,434.00
2023-01-20T01:15:52.761Z,434.00
2023-01-20T01:16:52.687Z,434.00
2023-01-20T01:17:52.669Z,434.00
2023-01-20T01:18:52.663Z,435.00
2023-01-20T01:19:52.660Z,435.00
2023-01-20T01:20:52.649Z,435.00
2023-01-20T01:21:52.632Z,434.00
2023-01-20T01:22:52.654Z,433.00
2023-01-20T01:23:52.619Z,434.00
2023-01-20T01:24:52.607Z,432.00
2023-01-20T01:25:52.603Z,432.00
2023-01-20T01:26:52.587Z,432.00
2023-01-20T01:27:52.602Z,433.00
2023-01-20T01:28:52.575Z,433.00
2023-01-20T01:29:52.557Z,429.00
2023-01-20T01:30:52.611Z,429.00
2023-01-20T01:31:52.540Z,429.00
2023-01-20T01:32:52.531Z,431.00
2023-01-20T01:33:52.526Z,431.00
2023-01-20T01:34:52.523Z,433.00
2023-01-20T01:35:52.504Z,433.00
2023-01-20T01:36:52.495Z,433.00
2023-01-20T01:37:52.497Z,431.00
2023-01-20T01:38:58.531Z,432.00
2023-01-20T01:39:52.468Z,432.00
2023-01-20T01:40:52.460Z,435.00
2023-01-20T01:41:52.454Z,435.00
2023-01-20T01:42:52.447Z,435.00
2023-01-20T01:43:52.457Z,433.00
2023-01-20T01:44:52.427Z,434.00
2023-01-20T01:45:52.452Z,433.00
2023-01-20T01:46:52.402Z,436.00
2023-01-20T01:47:52.401Z,435.00
2023-01-20T01:48:52.393Z,437.00
2023-01-20T01:49:52.387Z,436.00
2023-01-20T01:50:52.369Z,434.00
2023-01-20T01:51:52.356Z,433.00
2023-01-20T01:52:52.350Z,429.00
2023-01-20T01:53:52.336Z,430.00
2023-01-20T01:54:52.331Z,433.00
2023-01-20T01:55:52.322Z,435.00
2023-01-20T01:56:52.328Z,436.00
2023-01-20T01:57:52.305Z,435.00
2023-01-20T01:58:52.291Z,433.00
2023-01-20T01:59:52.307Z,432.00
2023-01-20T02:00:52.364Z,433.00
2023-01-20T02:01:52.467Z,433.00
2023-01-20T02:02:52.255Z,435.00
2023-01-20T02:03:52.249Z,436.00
2023-01-20T02:04:52.238Z,431.00
2023-01-20T02:05:52.232Z,432.00
2023-01-20T02:06:52.221Z,433.00
2023-01-20T02:07:52.211Z,430.00
2023-01-20T02:08:52.211Z,432.00
2023-01-20T02:09:52.191Z,433.00
2023-01-20T02:10:52.184Z,436.00
2023-01-20T02:11:52.176Z,435.00
2023-01-20T02:12:52.163Z,436.00
2023-01-20T02:13:52.155Z,434.00
2023-01-20T02:14:52.142Z,430.00
2023-01-20T02:15:52.167Z,430.00
2023-01-20T02:16:52.131Z,430.00
2023-01-20T02:17:52.114Z,430.00
2023-01-20T02:18:51.112Z,429.00
2023-01-20T02:19:52.099Z,428.00
2023-01-20T02:20:52.118Z,427.00
2023-01-20T02:21:52.081Z,425.00
2023-01-20T02:22:52.078Z,426.00
2023-01-20T02:23:52.061Z,429.00
2023-01-20T02:24:52.059Z,431.00
2023-01-20T02:25:52.045Z,433.00
2023-01-20T02:26:52.034Z,432.00
2023-01-20T02:27:52.029Z,431.00
2023-01-20T02:28:52.030Z,431.00
2023-01-20T02:29:52.013Z,433.00
2023-01-20T02:30:52.061Z,434.00
2023-01-20T02:31:52.085Z,436.00
2023-01-20T02:32:51.982Z,436.00
2023-01-20T02:33:51.972Z,436.00
2023-01-20T02:34:51.960Z,435.00
2023-01-20T02:35:51.961Z,434.00
2023-01-20T02:36:51.946Z,433.00
2023-01-20T02:37:51.933Z,431.00
2023-01-20T02:38:51.923Z,430.00
2023-01-20T02:39:51.916Z,428.00
2023-01-20T02:40:51.904Z,430.00
2023-01-20T02:41:51.896Z,428.00
2023-01-20T02:42:51.884Z,425.00
2023-01-20T02:43:51.881Z,427.00
2023-01-20T02:44:51.875Z,429.00
2023-01-20T02:45:51.893Z,427.00
2023-01-20T02:46:51.849Z,425.00
2023-01-20T02:47:52.236Z,427.00
2023-01-20T02:48:51.835Z,427.00
2023-01-20T02:49:51.847Z,429.00
2023-01-20T02:50:51.813Z,429.00
2023-01-20T02:51:51.806Z,426.00
2023-01-20T02:52:51.794Z,428.00
2023-01-20T02:53:51.796Z,430.00
2023-01-20T02:54:51.783Z,431.00
2023-01-20T02:55:51.768Z,429.00
2023-01-20T02:56:51.758Z,427.00
2023-01-20T02:57:51.749Z,429.00
2023-01-20T02:58:51.738Z,431.00
2023-01-20T02:59:51.729Z,432.00
2023-01-20T03:00:51.745Z,431.00
2023-01-20T03:01:51.828Z,432.00
2023-01-20T03:02:51.702Z,432.00
2023-01-20T03:03:51.780Z,431.00
2023-01-20T03:04:51.683Z,429.00
2023-01-20T03:05:51.772Z,430.00
2023-01-20T03:06:51.668Z,431.00
2023-01-20T03:07:51.656Z,433.00
2023-01-20T03:08:51.651Z,435.00
2023-01-20T03:09:51.641Z,432.00
2023-01-20T03:10:51.629Z,431.00
2023-01-20T03:11:51.628Z,429.00
2023-01-20T03:12:51.614Z,430.00
2023-01-20T03:13:51.603Z,434.00
2023-01-20T03:14:51.595Z,433.00
2023-01-20T03:15:51.596Z,432.00
2023-01-20T03:16:51.680Z,430.00
2023-01-20T03:17:51.571Z,431.00
2023-01-20T03:18:51.558Z,432.00
2023-01-20T03:19:51.575Z,431.00
2023-01-20T03:20:51.532Z,432.00
2023-01-20T03:21:51.526Z,428.00
2023-01-20T03:22:51.516Z,426.00
2023-01-20T03:23:51.511Z,429.00
2023-01-20T03:24:51.503Z,433.00
2023-01-20T03:25:51.498Z,432.00
2023-01-20T03:26:51.478Z,433.00
2023-01-20T03:27:51.477Z,434.00
2023-01-20T03:28:51.459Z,434.00
2023-01-20T03:29:51.452Z,433.00
2023-01-20T03:30:51.539Z,433.00
2023-01-20T03:31:51.432Z,430.00
2023-01-20T03:32:51.426Z,430.00
2023-01-20T03:33:51.416Z,433.00
2023-01-20T03:34:51.405Z,433.00
2023-01-20T03:35:51.424Z,433.00
2023-01-20T03:36:51.390Z,431.00
2023-01-20T03:37:51.378Z,433.00
2023-01-20T03:38:51.375Z,434.00
2023-01-20T03:39:51.361Z,433.00
2023-01-20T03:40:51.355Z,431.00
2023-01-20T03:41:51.345Z,428.00
2023-01-20T03:42:51.336Z,430.00
2023-01-20T03:43:51.321Z,432.00
2023-01-20T03:44:51.326Z,432.00
2023-01-20T03:45:51.412Z,432.00
2023-01-20T03:46:51.297Z,433.00
2023-01-20T03:47:51.284Z,431.00
2023-01-20T03:48:51.276Z,432.00
2023-01-20T03:49:51.266Z,435.00
2023-01-20T03:50:51.261Z,434.00
2023-01-20T03:51:51.277Z,433.00
2023-01-20T03:52:51.239Z,430.00
2023-01-20T03:53:51.230Z,432.00
2023-01-20T03:54:51.221Z,432.00
2023-01-20T03:55:51.232Z,432.00
2023-01-20T03:56:51.221Z,433.00
2023-01-20T03:57:51.192Z,434.00
2023-01-20T03:58:51.189Z,434.00
2023-01-20T03:59:51.192Z,433.00
2023-01-20T04:00:51.164Z,435.00
2023-01-20T04:01:51.321Z,436.00
2023-01-20T04:02:51.154Z,435.00
2023-01-20T04:03:51.136Z,435.00
2023-01-20T04:04:51.132Z,437.00
2023-01-20T04:05:51.135Z,437.00
2023-01-20T04:06:51.113Z,436.00
2023-01-20T04:07:51.127Z,435.00
2023-01-20T04:08:51.125Z,435.00
2023-01-20T04:09:51.096Z,435.00
2023-01-20T04:10:51.081Z,436.00
2023-01-20T04:11:51.080Z,432.00
2023-01-20T04:12:51.056Z,432.00
2023-01-20T04:13:51.051Z,430.00
2023-01-20T04:14:51.044Z,429.00
2023-01-20T04:15:51.049Z,427.00
2023-01-20T04:16:51.021Z,426.00
2023-01-20T04:17:51.010Z,424.00
2023-01-20T04:18:51.002Z,423.00
2023-01-20T04:19:50.993Z,422.00
2023-01-20T04:20:50.983Z,426.00
2023-01-20T04:21:51.026Z,423.00
2023-01-20T04:22:50.974Z,423.00
2023-01-20T04:23:50.980Z,425.00
2023-01-20T04:24:50.951Z,425.00
2023-01-20T04:25:50.937Z,426.00
2023-01-20T04:26:50.932Z,426.00
2023-01-20T04:27:50.935Z,426.00
2023-01-20T04:28:50.911Z,427.00
2023-01-20T04:29:50.918Z,428.00
2023-01-20T04:30:51.086Z,429.00
2023-01-20T04:31:50.948Z,430.00
2023-01-20T04:32:50.878Z,429.00
2023-01-20T04:33:50.866Z,428.00
2023-01-20T04:34:50.855Z,429.00
2023-01-20T04:35:50.849Z,429.00
2023-01-20T04:36:50.840Z,428.00
2023-01-20T04:37:50.829Z,430.00
2023-01-20T04:38:50.820Z,429.00
2023-01-20T04:39:50.834Z,429.00
2023-01-20T04:40:50.805Z,429.00
2023-01-20T04:41:50.794Z,432.00
2023-01-20T04:42:50.785Z,431.00
2023-01-20T04:43:50.779Z,432.00
2023-01-20T04:44:50.768Z,432.00
2023-01-20T04:45:50.756Z,431.00
2023-01-20T04:46:50.749Z,433.00
2023-01-20T04:47:50.741Z,431.00
2023-01-20T04:48:50.729Z,431.00
2023-01-20T04:49:50.721Z,431.00
2023-01-20T04:50:50.759Z,427.00
2023-01-20T04:51:50.718Z,429.00
2023-01-20T04:52:50.700Z,428.00
2023-01-20T04:53:50.691Z,430.00
2023-01-20T04:54:50.678Z,430.00
2023-01-20T04:55:50.689Z,432.00
2023-01-20T04:56:50.660Z,431.00
2023-01-20T04:57:50.650Z,429.00
2023-01-20T04:58:50.641Z,430.00
2023-01-20T04:59:50.630Z,429.00
2023-01-20T05:00:50.621Z,428.00
2023-01-20T05:01:50.748Z,428.00
2023-01-20T05:02:50.680Z,429.00
2023-01-20T05:03:50.592Z,429.00
2023-01-20T05:04:50.583Z,428.00
2023-01-20T05:05:50.573Z,430.00
2023-01-20T05:06:50.566Z,430.00
2023-01-20T05:07:50.557Z,432.00
2023-01-20T05:08:50.546Z,430.00
2023-01-20T05:09:50.542Z,430.00
2023-01-20T05:10:50.543Z,429.00
2023-01-20T05:11:50.540Z,431.00
2023-01-20T05:12:50.519Z,431.00
2023-01-20T05:13:50.499Z,431.00
2023-01-20T05:14:50.504Z,430.00
2023-01-20T05:15:50.533Z,430.00
2023-01-20T05:16:50.482Z,428.00
2023-01-20T05:17:50.475Z,427.00
2023-01-20T05:18:50.464Z,427.00
2023-01-20T05:19:50.451Z,426.00
2023-01-20T05:20:50.438Z,427.00
2023-01-20T05:21:50.435Z,428.00
2023-01-20T05:22:50.420Z,430.00
2023-01-20T05:23:50.412Z,429.00
2023-01-20T05:24:50.400Z,428.00
2023-01-20T05:25:50.398Z,427.00
2023-01-20T05:26:50.380Z,429.00
2023-01-20T05:27:50.396Z,430.00
2023-01-20T05:28:50.363Z,432.00
2023-01-20T05:29:50.357Z,427.00
2023-01-20T05:30:50.574Z,427.00
2023-01-20T05:31:50.427Z,428.00
2023-01-20T05:32:50.326Z,427.00
2023-01-20T05:33:50.322Z,428.00
2023-01-20T05:34:50.309Z,427.00
2023-01-20T05:35:50.301Z,425.00
2023-01-20T05:36:50.291Z,424.00
2023-01-20T05:37:50.280Z,424.00
2023-01-20T05:38:50.273Z,423.00
2023-01-20T05:39:50.267Z,425.00
2023-01-20T05:40:50.260Z,428.00
2023-01-20T05:41:50.247Z,430.00
2023-01-20T05:42:50.239Z,430.00
2023-01-20T05:43:50.254Z,430.00
2023-01-20T05:44:50.231Z,430.00
2023-01-20T05:45:50.211Z,431.00
2023-01-20T05:46:50.201Z,430.00
2023-01-20T05:47:50.193Z,429.00
2023-01-20T05:48:50.185Z,429.00
2023-01-20T05:49:50.179Z,430.00
2023-01-20T05:50:50.192Z,429.00
2023-01-20T05:51:50.168Z,430.00
2023-01-20T05:52:50.173Z,429.00
2023-01-20T05:53:50.172Z,429.00
2023-01-20T06:20:50.093Z,424.00
2023-01-20T06:23:50.096Z,432.00
2023-01-20T06:28:50.144Z,439.00
2023-01-20T06:32:49.790Z,439.00
2023-01-20T06:33:50.101Z,441.00
2023-01-20T06:35:49.764Z,445.00
2023-01-20T06:54:49.606Z,562.00
2023-01-20T06:57:49.578Z,616.00
2023-01-20T06:59:49.890Z,676.00
2023-01-20T07:00:49.735Z,682.00
2023-01-20T07:02:49.518Z,729.00
2023-01-20T07:04:49.610Z,757.00
2023-01-20T07:06:49.488Z,817.00
2023-01-20T07:07:49.486Z,813.00
2023-01-20T07:09:49.615Z,833.00
2023-01-20T07:14:49.431Z,840.00
2023-01-20T07:15:49.704Z,839.00
2023-01-20T07:17:49.636Z,848.00
2023-01-20T07:18:49.382Z,851.00
2023-01-20T07:20:49.759Z,852.00
2023-01-20T07:21:49.353Z,855.00
2023-01-20T07:24:49.620Z,855.00
2023-01-20T07:28:49.620Z,858.00
2023-01-20T07:29:49.627Z,865.00
2023-01-20T07:48:49.132Z,800.00
2023-01-20T07:53:49.162Z,766.00
2023-01-20T07:55:49.141Z,781.00
2023-01-20T08:00:49.233Z,829.00
2023-01-20T08:05:49.135Z,855.00
2023-01-20T08:10:49.267Z,865.00
2023-01-20T08:11:49.776Z,864.00
2023-01-20T08:15:49.146Z,879.00
2023-01-20T08:20:49.147Z,882.00
2023-01-20T08:30:48.800Z,879.00
2023-01-20T08:35:48.693Z,865.00
2023-01-20T08:41:48.648Z,854.00
2023-01-20T08:43:48.743Z,857.00
2023-01-20T08:48:48.747Z,888.00
2023-01-20T08:53:48.649Z,878.00
2023-01-20T08:56:48.677Z,881.00
2023-01-20T09:00:48.698Z,871.00
2023-01-20T09:02:48.729Z,885.00
2023-01-20T09:04:48.655Z,897.00
2023-01-20T09:14:48.659Z,909.00
2023-01-20T09:25:48.277Z,928.00
2023-01-20T09:36:48.181Z,912.00
2023-01-20T09:43:48.234Z,929.00
